createdAt,value
2018-09-24T00:00:11.314Z,12.53
2018-09-24T00:02:39.723Z,15.40
2018-09-24T00:05:08.344Z,13.43
2018-09-24T00:07:36.877Z,12.90
2018-09-24T00:10:05.717Z,14.87
2018-09-24T00:12:34.389Z,15.57
2018-09-24T00:15:03.286Z,12.03
2018-09-24T00:17:32.504Z,11.43
2018-09-24T00:20:01.037Z,11.00
2018-09-24T00:22:29.533Z,13.77
2018-09-24T00:24:58.042Z,13.83
2018-09-24T00:27:26.884Z,11.80
2018-09-24T00:29:56.243Z,13.80
2018-09-24T00:32:25.163Z,18.67
2018-09-24T00:34:54.108Z,12.43
2018-09-24T00:37:22.674Z,12.37
2018-09-24T00:39:51.286Z,9.90
2018-09-24T00:42:19.804Z,12.33
2018-09-24T00:44:48.732Z,12.93
2018-09-24T00:47:17.243Z,12.07
2018-09-24T00:49:45.763Z,13.50
2018-09-24T00:52:14.388Z,16.17
2018-09-24T00:54:42.911Z,11.30
2018-09-24T00:57:11.448Z,8.67
2018-09-24T00:59:40.009Z,13.47
2018-09-24T01:02:08.504Z,17.87
2018-09-24T01:04:37.052Z,11.27
2018-09-24T01:07:05.583Z,9.20
2018-09-24T01:09:34.091Z,6.83
2018-09-24T01:12:02.816Z,9.23
2018-09-24T01:14:31.328Z,10.77
2018-09-24T01:16:59.842Z,8.40
2018-09-24T01:19:28.378Z,16.87
2018-09-24T01:21:56.912Z,10.33
2018-09-24T01:24:25.423Z,14.43
2018-09-24T01:26:54.260Z,8.63
2018-09-24T01:29:22.917Z,12.33
2018-09-24T01:31:51.473Z,12.53
2018-09-24T01:34:20.245Z,9.03
2018-09-24T01:36:48.789Z,10.13
2018-09-24T01:39:17.268Z,14.23
2018-09-24T01:41:45.792Z,12.93
2018-09-24T01:44:14.375Z,12.13
2018-09-24T01:46:42.881Z,9.10
2018-09-24T01:49:11.373Z,8.73
2018-09-24T01:51:40.017Z,15.73
2018-09-24T01:54:08.927Z,13.90
2018-09-24T01:56:37.467Z,7.67
2018-09-24T01:59:06.167Z,12.60
2018-09-24T02:01:34.686Z,14.03
2018-09-24T02:04:03.468Z,14.03
2018-09-24T02:06:32.236Z,12.03
2018-09-24T02:09:00.793Z,12.33
2018-09-24T02:11:29.293Z,12.43
2018-09-24T02:13:58.160Z,11.23
2018-09-24T02:16:26.838Z,16.03
2018-09-24T02:18:59.812Z,14.83
2018-09-24T02:21:28.791Z,12.43
2018-09-24T02:24:03.145Z,12.97
2018-09-24T02:26:31.755Z,13.90
2018-09-24T02:29:00.445Z,10.13
2018-09-24T02:31:29.099Z,13.00
2018-09-24T02:33:57.817Z,13.87
2018-09-24T02:36:26.388Z,14.30
2018-09-24T02:38:54.927Z,13.83
2018-09-24T02:41:23.419Z,15.53
2018-09-24T02:43:52.127Z,15.23
2018-09-24T02:46:20.642Z,11.77
2018-09-24T02:48:49.176Z,8.63
2018-09-24T02:51:17.774Z,12.93
2018-09-24T02:53:46.384Z,8.87
2018-09-24T02:56:15.019Z,13.50
2018-09-24T02:58:43.511Z,11.23
2018-09-24T03:01:12.546Z,12.03
2018-09-24T03:03:41.017Z,10.10
2018-09-24T03:06:09.558Z,8.67
2018-09-24T03:08:40.526Z,8.33
2018-09-24T03:11:09.055Z,8.17
2018-09-24T03:13:37.556Z,11.60
2018-09-24T03:16:06.087Z,9.57
2018-09-24T03:18:34.696Z,9.43
2018-09-24T03:21:03.172Z,8.93
2018-09-24T03:23:31.720Z,9.07
2018-09-24T03:26:00.483Z,8.60
2018-09-24T03:28:28.987Z,11.17
2018-09-24T03:30:57.510Z,9.77
2018-09-24T03:33:26.022Z,8.03
2018-09-24T03:35:54.545Z,9.93
2018-09-24T03:38:23.200Z,8.90
2018-09-24T03:40:52.163Z,17.57
2018-09-24T03:43:20.723Z,13.10
2018-09-24T03:45:49.364Z,12.73
2018-09-24T03:48:17.853Z,8.27
2018-09-24T03:50:46.463Z,14.30
2018-09-24T03:53:15.003Z,9.37
2018-09-24T03:55:43.526Z,10.20
2018-09-24T03:58:12.243Z,10.43
2018-09-24T04:00:40.746Z,10.53
2018-09-24T04:03:09.276Z,9.63
2018-09-24T04:05:43.072Z,15.47
2018-09-24T04:08:17.101Z,8.40
2018-09-24T04:10:51.175Z,15.13
2018-09-24T04:13:25.167Z,13.83
2018-09-24T04:15:59.225Z,12.87
2018-09-24T04:18:33.065Z,10.97
2018-09-24T04:21:06.989Z,18.03
2018-09-24T04:23:40.835Z,13.13
2018-09-24T04:26:14.580Z,12.30
2018-09-24T04:28:48.635Z,11.13
2018-09-24T04:31:22.397Z,14.53
2018-09-24T04:33:56.191Z,14.03
2018-09-24T04:36:29.934Z,15.73
2018-09-24T04:39:03.726Z,12.57
2018-09-24T04:41:37.680Z,12.60
2018-09-24T04:44:11.529Z,11.40
2018-09-24T04:46:45.360Z,13.40
2018-09-24T04:49:19.151Z,10.87
2018-09-24T04:51:52.824Z,11.20
2018-09-24T04:54:26.746Z,17.40
2018-09-24T04:57:00.452Z,19.70
2018-09-24T04:59:34.270Z,13.07
2018-09-24T05:02:07.951Z,9.47
2018-09-24T05:04:42.183Z,13.03
2018-09-24T05:07:16.102Z,12.30
2018-09-24T05:09:50.054Z,11.97
2018-09-24T05:12:23.874Z,16.13
2018-09-24T05:14:57.823Z,17.07
2018-09-24T05:17:31.650Z,13.63
2018-09-24T05:20:05.601Z,13.63
2018-09-24T05:22:39.405Z,14.00
2018-09-24T05:25:13.447Z,13.10
2018-09-24T05:27:47.132Z,17.87
2018-09-24T05:30:21.027Z,14.03
2018-09-24T05:32:54.965Z,12.13
2018-09-24T05:35:28.890Z,12.03
2018-09-24T05:38:02.770Z,15.80
2018-09-24T05:40:36.516Z,14.00
2018-09-24T05:43:10.512Z,13.20
2018-09-24T05:45:44.393Z,14.73
2018-09-24T05:48:18.131Z,16.27
2018-09-24T05:50:52.048Z,11.47
2018-09-24T05:53:26.194Z,18.03
2018-09-24T05:55:59.992Z,16.50
2018-09-24T05:58:34.221Z,16.33
2018-09-24T06:01:07.916Z,12.80
2018-09-24T06:03:41.776Z,15.37
2018-09-24T06:06:15.596Z,18.90
2018-09-24T06:08:49.431Z,15.53
2018-09-24T06:11:23.100Z,15.73
2018-09-24T06:13:56.828Z,17.83
2018-09-24T06:16:30.919Z,14.37
2018-09-24T06:19:04.856Z,13.37
2018-09-24T06:21:38.631Z,13.10
2018-09-24T06:24:12.745Z,14.57
2018-09-24T06:26:46.657Z,11.13
2018-09-24T06:29:20.442Z,14.63
2018-09-24T06:31:54.289Z,9.07
2018-09-24T06:34:28.129Z,10.30
2018-09-24T06:37:01.931Z,13.77
2018-09-24T06:39:35.898Z,14.87
2018-09-24T06:42:09.697Z,6.93
2018-09-24T06:44:43.454Z,14.40
2018-09-24T06:47:17.360Z,12.87
2018-09-24T06:49:51.439Z,16.40
2018-09-24T06:52:25.250Z,17.37
2018-09-24T06:54:59.043Z,13.80
2018-09-24T06:57:33.122Z,12.80
2018-09-24T07:00:07.159Z,12.30
2018-09-24T07:02:40.827Z,17.67
2018-09-24T07:05:14.544Z,8.63
2018-09-24T07:07:48.305Z,12.73
2018-09-24T07:10:22.254Z,12.50
2018-09-24T07:12:56.361Z,12.77
2018-09-24T07:15:30.394Z,14.60
2018-09-24T07:18:04.091Z,10.70
2018-09-24T07:20:38.420Z,11.97
2018-09-24T07:23:12.630Z,12.37
2018-09-24T07:25:46.692Z,9.80
2018-09-24T07:28:20.542Z,7.67
2018-09-24T07:30:54.422Z,13.67
2018-09-24T07:33:28.335Z,9.93
2018-09-24T07:36:02.149Z,12.40
2018-09-24T07:38:35.907Z,12.43
2018-09-24T07:41:09.728Z,12.93
2018-09-24T07:43:43.533Z,11.07
2018-09-24T07:46:17.305Z,7.50
2018-09-24T07:48:51.244Z,11.70
2018-09-24T07:51:25.287Z,8.53
2018-09-24T07:53:59.167Z,11.63
2018-09-24T07:56:33.071Z,11.13
2018-09-24T07:59:07.102Z,10.20
2018-09-24T08:01:40.856Z,11.70
2018-09-24T08:04:14.862Z,10.50
2018-09-24T08:06:48.748Z,11.33
2018-09-24T08:09:22.563Z,7.03
2018-09-24T08:11:56.562Z,9.77
2018-09-24T08:14:30.735Z,9.37
2018-09-24T08:17:04.370Z,11.47
2018-09-24T08:19:38.669Z,11.60
2018-09-24T08:22:12.578Z,8.60
2018-09-24T08:24:46.450Z,5.80
2018-09-24T08:27:20.261Z,8.37
2018-09-24T08:29:54.094Z,8.20
2018-09-24T08:32:28.020Z,7.17
2018-09-24T08:35:01.683Z,9.57
2018-09-24T08:37:35.572Z,8.90
2018-09-24T08:40:09.452Z,7.07
2018-09-24T08:42:43.330Z,10.37
2018-09-24T08:45:17.056Z,6.03
2018-09-24T08:47:51.022Z,10.17
2018-09-24T08:50:24.908Z,12.30
2018-09-24T08:52:58.736Z,11.23
2018-09-24T08:55:32.566Z,10.23
2018-09-24T08:58:06.687Z,11.57
2018-09-24T09:00:40.461Z,7.77
2018-09-24T09:03:14.286Z,8.17
2018-09-24T09:05:48.369Z,4.77
2018-09-24T09:08:22.514Z,12.27
2018-09-24T09:10:56.248Z,7.60
2018-09-24T09:13:30.071Z,6.53
2018-09-24T09:16:04.105Z,8.83
2018-09-24T09:18:38.143Z,10.17
2018-09-24T09:21:12.061Z,8.33
2018-09-24T09:23:45.682Z,5.23
2018-09-24T09:26:19.520Z,8.70
2018-09-24T09:28:53.358Z,7.80
2018-09-24T09:31:27.251Z,8.13
2018-09-24T09:34:01.391Z,5.70
2018-09-24T09:36:35.376Z,4.67
2018-09-24T09:39:10.009Z,9.60
2018-09-24T09:41:43.852Z,6.47
2018-09-24T09:44:17.661Z,9.30
2018-09-24T09:46:51.624Z,9.40
2018-09-24T09:49:25.420Z,6.13
2018-09-24T09:51:59.290Z,9.43
2018-09-24T09:54:33.502Z,5.60
2018-09-24T09:57:07.377Z,5.93
2018-09-24T09:59:41.178Z,6.33
2018-09-24T10:02:15.002Z,7.40
2018-09-24T10:04:49.123Z,6.20
2018-09-24T10:07:22.840Z,5.27
2018-09-24T10:09:56.610Z,5.77
2018-09-24T10:12:30.448Z,7.27
2018-09-24T10:15:04.383Z,7.47
2018-09-24T10:17:38.688Z,12.37
2018-09-24T10:20:12.627Z,6.40
2018-09-24T10:22:46.818Z,7.37
2018-09-24T10:25:20.801Z,2.77
2018-09-24T10:27:54.681Z,9.80
2018-09-24T10:30:28.764Z,5.20
2018-09-24T10:33:02.459Z,4.90
2018-09-24T10:35:36.375Z,6.47
2018-09-24T10:38:10.460Z,4.67
2018-09-24T10:40:44.396Z,5.43
2018-09-24T10:43:18.249Z,5.50
2018-09-24T10:45:52.346Z,6.40
2018-09-24T10:48:26.020Z,6.57
2018-09-24T10:50:59.932Z,4.87
2018-09-24T10:53:33.782Z,5.50
2018-09-24T10:56:07.555Z,4.50
2018-09-24T10:58:41.879Z,3.57
2018-09-24T11:01:15.643Z,4.07
2018-09-24T11:03:49.516Z,8.37
2018-09-24T11:06:24.498Z,3.83
2018-09-24T11:08:58.497Z,3.23
2018-09-24T11:11:32.338Z,3.73
2018-09-24T11:14:06.066Z,4.93
2018-09-24T11:16:40.165Z,4.93
2018-09-24T11:19:13.890Z,6.13
2018-09-24T11:21:47.542Z,2.47
2018-09-24T11:24:21.895Z,5.57
2018-09-24T11:26:55.668Z,3.20
2018-09-24T11:29:29.419Z,6.87
2018-09-24T11:32:03.346Z,6.40
2018-09-24T11:34:37.245Z,3.87
2018-09-24T11:37:11.194Z,7.17
2018-09-24T11:39:45.094Z,6.07
2018-09-24T11:42:19.103Z,1.87
2018-09-24T11:44:54.173Z,8.30
2018-09-24T11:47:27.992Z,3.83
2018-09-24T11:50:02.256Z,6.73
2018-09-24T11:52:36.200Z,6.27
2018-09-24T11:55:10.060Z,6.07
2018-09-24T11:57:44.055Z,3.10
2018-09-24T12:00:17.840Z,5.67
2018-09-24T12:02:51.652Z,3.13
2018-09-24T12:05:25.436Z,5.63
2018-09-24T12:07:59.344Z,4.43
2018-09-24T12:10:33.187Z,3.77
2018-09-24T12:13:07.074Z,4.37
2018-09-24T12:15:40.922Z,3.60
2018-09-24T12:18:14.729Z,4.97
2018-09-24T12:20:48.823Z,2.83
2018-09-24T12:23:22.658Z,5.50
2018-09-24T12:25:56.480Z,5.20
2018-09-24T12:28:30.368Z,5.30
2018-09-24T12:31:04.414Z,6.40
2018-09-24T12:33:38.257Z,4.57
2018-09-24T12:36:11.926Z,5.90
2018-09-24T12:38:46.023Z,3.07
2018-09-24T12:41:20.193Z,2.03
2018-09-24T12:43:54.377Z,5.23
2018-09-24T12:46:28.618Z,5.90
2018-09-24T12:49:02.503Z,3.73
2018-09-24T12:51:36.639Z,4.33
2018-09-24T12:54:10.594Z,3.23
2018-09-24T12:56:44.511Z,1.73
2018-09-24T12:59:18.431Z,3.03
2018-09-24T13:01:52.424Z,3.53
2018-09-24T13:04:26.281Z,6.13
2018-09-24T13:07:00.131Z,4.50
2018-09-24T13:09:34.244Z,4.63
2018-09-24T13:12:08.511Z,2.57
2018-09-24T13:14:42.548Z,3.03
2018-09-24T13:17:16.738Z,1.27
2018-09-24T13:19:50.768Z,2.17
2018-09-24T13:22:24.453Z,2.57
2018-09-24T13:24:58.227Z,1.30
2018-09-24T13:27:32.019Z,0.90
2018-09-24T13:30:06.146Z,3.13
2018-09-24T13:32:39.864Z,1.67
2018-09-24T13:35:13.688Z,3.27
2018-09-24T13:37:47.523Z,0.80
2018-09-24T13:40:21.487Z,3.27
2018-09-24T13:42:55.397Z,0.90
2018-09-24T13:45:29.396Z,2.93
2018-09-24T13:48:03.244Z,2.77
2018-09-24T13:50:37.074Z,1.60
2018-09-24T13:53:11.039Z,1.80
2018-09-24T13:55:45.180Z,1.27
2018-09-24T13:58:18.970Z,2.30
2018-09-24T14:00:52.950Z,3.53
2018-09-24T14:03:26.747Z,4.83
2018-09-24T14:06:00.756Z,1.53
2018-09-24T14:08:34.607Z,2.27
2018-09-24T14:11:08.559Z,1.73
2018-09-24T14:13:42.576Z,1.70
2018-09-24T14:16:16.582Z,3.13
2018-09-24T14:18:50.498Z,1.57
2018-09-24T14:21:31.238Z,4.70
2018-09-24T14:24:05.209Z,3.80
2018-09-24T14:26:39.353Z,2.87
2018-09-24T14:29:13.217Z,4.50
2018-09-24T14:31:47.637Z,2.27
2018-09-24T14:34:21.600Z,2.10
2018-09-24T14:36:55.633Z,4.13
2018-09-24T14:39:29.669Z,1.60
2018-09-24T14:42:03.640Z,2.63
2018-09-24T14:44:37.744Z,3.00
2018-09-24T14:47:11.696Z,3.00
2018-09-24T14:49:45.450Z,2.27
2018-09-24T14:52:19.447Z,4.17
2018-09-24T14:54:53.356Z,5.37
2018-09-24T14:57:27.289Z,3.30
2018-09-24T15:00:01.158Z,3.60
2018-09-24T15:02:35.070Z,2.27
2018-09-24T15:05:08.887Z,2.70
2018-09-24T15:07:42.756Z,5.83
2018-09-24T15:10:16.854Z,2.93
2018-09-24T15:12:50.943Z,4.20
2018-09-24T15:15:25.088Z,2.43
2018-09-24T15:17:59.251Z,2.50
2018-09-24T15:20:33.535Z,4.47
2018-09-24T15:23:07.516Z,2.63
2018-09-24T15:25:41.500Z,3.10
2018-09-24T15:28:15.392Z,3.45
2018-09-24T15:30:49.314Z,4.42
2018-09-24T15:33:23.442Z,3.12
2018-09-24T15:35:57.241Z,2.83
2018-09-24T15:38:31.559Z,2.70
2018-09-24T15:41:05.657Z,2.30
2018-09-24T15:43:39.754Z,2.90
2018-09-24T15:46:13.913Z,2.02
2018-09-24T15:48:47.918Z,3.45
2018-09-24T15:51:21.996Z,2.98
2018-09-24T15:53:55.840Z,3.40
2018-09-24T15:56:29.756Z,5.05
2018-09-24T15:59:03.780Z,5.08
2018-09-24T16:01:38.051Z,4.30
2018-09-24T16:04:11.972Z,5.90
2018-09-24T16:06:45.981Z,4.63
2018-09-24T16:09:20.216Z,2.43
2018-09-24T16:11:54.177Z,3.07
2018-09-24T16:14:28.298Z,2.13
2018-09-24T16:17:02.592Z,2.77
2018-09-24T16:19:36.657Z,2.63
2018-09-24T16:22:12.022Z,3.90
2018-09-24T16:33:25.773Z,4.63
2018-09-24T16:38:53.512Z,5.27
2018-09-24T16:44:20.935Z,5.30
2018-09-24T17:36:01.057Z,7.57
